Kelso, Missouri
Current Conditions -  °F | °C
As of 3:53 AM on Saturday 20 Dec 2014 (Local Time) from KCGI Reporting Station
Overcast Overcast  
Wind Chill: 31°   Ceiling: 3400
Heat Index: 35°   Visibility: 10mi
Dew Point: 29°   Wind: 5mph
Humidity: 78%   Direction: 40°NE
Pressure: 30.26"   Gusts: NA
Location:  37.19°N, 89.55°W
Report Text: KCGI 200953Z AUTO 04004KT 10SM OVC034 02/M02 A3026 RMK AO2 SLP249 T00171017 TSNO
Loading
Personal Weather Stations






























Interactive Weather Map New forecast layout! Learn more

10-Day Weather Forecast

Advertisements
Track Severe Weather on mobile